createdAt,value
2019-06-20T00:01:52.399Z,45.60
2019-06-20T00:04:18.775Z,45.70
2019-06-20T00:06:45.466Z,45.80
2019-06-20T00:09:12.101Z,46.00
2019-06-20T00:11:38.852Z,45.90
2019-06-20T00:14:05.605Z,46.20
2019-06-20T00:16:31.923Z,46.10
2019-06-20T00:18:58.215Z,46.20
2019-06-20T00:21:24.481Z,46.40
2019-06-20T00:23:50.771Z,46.30
2019-06-20T00:26:17.380Z,46.40
2019-06-20T00:28:44.083Z,46.50
2019-06-20T00:31:10.550Z,46.50
2019-06-20T00:33:36.968Z,46.50
2019-06-20T00:36:03.754Z,46.60
2019-06-20T00:38:30.177Z,46.70
2019-06-20T00:40:57.911Z,46.80
2019-06-20T00:43:25.391Z,46.90
2019-06-20T00:45:51.750Z,46.90
2019-06-20T00:48:18.139Z,46.90
2019-06-20T00:50:45.506Z,47.00
2019-06-20T00:53:12.206Z,46.90
2019-06-20T00:55:38.591Z,47.00
2019-06-20T00:58:05.103Z,47.10
2019-06-20T01:00:31.585Z,47.30
2019-06-20T01:02:58.049Z,47.40
2019-06-20T01:05:24.848Z,47.60
2019-06-20T01:07:51.107Z,47.80
2019-06-20T01:10:17.518Z,47.80
2019-06-20T01:12:57.326Z,47.80
2019-06-20T01:15:23.718Z,47.80
2019-06-20T01:17:50.099Z,47.90
2019-06-20T01:20:17.011Z,48.10
2019-06-20T01:22:43.655Z,48.20
2019-06-20T01:25:10.902Z,48.30
2019-06-20T01:27:37.370Z,48.40
2019-06-20T01:30:07.987Z,48.50
2019-06-20T01:32:34.650Z,48.50
2019-06-20T01:35:01.221Z,48.60
2019-06-20T01:37:27.595Z,49.10
2019-06-20T01:39:53.999Z,49.20
2019-06-20T01:42:21.707Z,48.90
2019-06-20T01:44:48.070Z,48.90
2019-06-20T01:47:14.366Z,49.00
2019-06-20T01:49:40.728Z,49.00
2019-06-20T01:52:07.133Z,49.10
2019-06-20T01:54:33.851Z,49.30
2019-06-20T01:57:00.247Z,49.20
2019-06-20T01:59:26.834Z,49.30
2019-06-20T02:01:53.437Z,49.40
2019-06-20T02:04:20.092Z,49.40
2019-06-20T02:06:46.483Z,49.50
2019-06-20T02:09:13.088Z,49.50
2019-06-20T02:11:39.573Z,49.60
2019-06-20T02:14:07.579Z,49.70
2019-06-20T02:16:34.536Z,49.70
2019-06-20T02:19:01.271Z,49.70
2019-06-20T02:21:27.736Z,49.80
2019-06-20T02:23:54.130Z,49.80
2019-06-20T02:26:20.421Z,49.80
2019-06-20T02:28:47.190Z,49.80
2019-06-20T02:31:13.459Z,50.00
2019-06-20T02:33:53.337Z,50.10
2019-06-20T02:36:19.822Z,50.10
2019-06-20T02:38:46.200Z,50.20
2019-06-20T02:41:12.727Z,50.30
2019-06-20T02:43:39.019Z,50.30
2019-06-20T02:46:05.477Z,50.50
2019-06-20T02:48:32.381Z,50.50
2019-06-20T02:51:01.584Z,50.50
2019-06-20T02:53:28.104Z,50.50
2019-06-20T02:55:54.470Z,50.50
2019-06-20T02:58:20.750Z,50.50
2019-06-20T03:00:51.029Z,50.60
2019-06-20T03:03:17.302Z,50.60
2019-06-20T03:05:43.698Z,50.70
2019-06-20T03:08:10.467Z,50.80
2019-06-20T03:10:36.755Z,50.90
2019-06-20T03:13:04.095Z,50.90
2019-06-20T03:15:30.612Z,50.90
2019-06-20T03:17:57.314Z,51.40
2019-06-20T03:20:24.227Z,51.10
2019-06-20T03:22:50.906Z,51.30
2019-06-20T03:25:19.198Z,51.20
2019-06-20T03:27:45.612Z,51.40
2019-06-20T03:30:12.782Z,51.50
2019-06-20T03:32:39.176Z,51.60
2019-06-20T03:35:06.095Z,51.70
2019-06-20T03:37:32.390Z,51.70
2019-06-20T03:39:58.739Z,51.80
2019-06-20T03:42:25.247Z,51.90
2019-06-20T03:45:01.672Z,51.90
2019-06-20T03:47:19.715Z,52.00
2019-06-20T03:49:45.979Z,52.00
2019-06-20T03:52:12.574Z,52.00
2019-06-20T03:54:38.851Z,52.00
2019-06-20T03:57:05.156Z,52.00
2019-06-20T03:59:31.529Z,52.00
2019-06-20T04:01:57.908Z,52.10
2019-06-20T04:04:27.308Z,52.10
2019-06-20T04:06:54.571Z,52.20
2019-06-20T04:09:20.874Z,52.30
2019-06-20T04:11:47.149Z,52.40
2019-06-20T04:14:13.843Z,52.40
2019-06-20T04:16:40.109Z,52.40
2019-06-20T04:19:06.511Z,52.50
2019-06-20T04:21:33.245Z,52.80
2019-06-20T04:23:59.722Z,52.50
2019-06-20T04:26:26.325Z,52.60
2019-06-20T04:28:52.716Z,52.80
2019-06-20T04:31:18.994Z,52.70
2019-06-20T04:33:45.491Z,52.80
2019-06-20T04:36:11.855Z,52.90
2019-06-20T04:38:38.167Z,53.20
2019-06-20T04:41:04.540Z,53.10
2019-06-20T04:43:30.933Z,53.10
2019-06-20T04:46:02.210Z,53.10
2019-06-20T04:48:28.608Z,53.10
2019-06-20T04:50:55.282Z,53.10
2019-06-20T04:53:21.897Z,53.10
2019-06-20T04:55:48.270Z,53.00
2019-06-20T04:58:14.739Z,53.10
2019-06-20T05:00:41.130Z,53.30
2019-06-20T05:03:07.508Z,53.00
2019-06-20T05:05:34.007Z,53.00
2019-06-20T05:08:00.472Z,52.90
2019-06-20T05:10:26.768Z,52.90
2019-06-20T05:12:55.965Z,52.80
2019-06-20T05:15:21.353Z,52.80
2019-06-20T05:17:47.915Z,52.80
2019-06-20T05:20:15.696Z,52.70
2019-06-20T05:22:41.963Z,52.70
2019-06-20T05:25:09.358Z,52.70
2019-06-20T05:27:35.814Z,52.60
2019-06-20T05:30:11.210Z,52.60
2019-06-20T05:32:37.578Z,52.70
2019-06-20T05:35:04.479Z,52.60
2019-06-20T05:37:30.877Z,52.60
2019-06-20T05:39:57.247Z,52.50
2019-06-20T05:42:23.548Z,52.60
2019-06-20T05:44:49.910Z,52.60
2019-06-20T05:47:16.478Z,52.50
2019-06-20T05:49:43.950Z,52.50
2019-06-20T05:52:10.612Z,52.40
2019-06-20T05:54:36.890Z,52.40
2019-06-20T05:57:04.737Z,52.30
2019-06-20T05:59:31.212Z,52.80
2019-06-20T06:01:57.504Z,52.20
2019-06-20T06:04:23.863Z,52.30
2019-06-20T06:06:50.154Z,52.10
2019-06-20T06:09:16.420Z,52.10
2019-06-20T06:11:42.924Z,52.00
2019-06-20T06:14:09.515Z,51.90
2019-06-20T06:16:36.316Z,51.80
2019-06-20T06:19:03.004Z,51.90
2019-06-20T06:21:30.103Z,51.80
2019-06-20T06:23:56.448Z,51.70
2019-06-20T06:26:22.879Z,51.60
2019-06-20T06:28:50.347Z,51.50
2019-06-20T06:31:16.958Z,51.30
2019-06-20T06:33:43.252Z,51.30
2019-06-20T06:36:09.637Z,51.30
2019-06-20T06:38:36.010Z,51.40
2019-06-20T06:41:02.336Z,51.20
2019-06-20T06:43:28.699Z,51.00
2019-06-20T06:45:54.991Z,51.00
2019-06-20T06:48:21.512Z,50.90
2019-06-20T06:50:48.112Z,51.00
2019-06-20T06:53:14.649Z,50.90
2019-06-20T06:55:40.941Z,50.90
2019-06-20T06:58:07.314Z,50.90
2019-06-20T07:00:33.666Z,51.20
2019-06-20T07:03:00.195Z,50.70
2019-06-20T07:05:26.675Z,50.50
2019-06-20T07:07:53.079Z,50.30
2019-06-20T07:10:20.021Z,50.30
2019-06-20T07:12:46.771Z,50.20
2019-06-20T07:15:15.421Z,50.10
2019-06-20T07:17:42.198Z,50.00
2019-06-20T07:20:15.119Z,50.00
2019-06-20T07:22:40.687Z,50.00
2019-06-20T07:25:07.559Z,49.70
2019-06-20T07:27:34.235Z,49.50
2019-06-20T07:30:00.507Z,49.60
2019-06-20T07:32:27.252Z,49.60
2019-06-20T07:34:53.860Z,49.80
2019-06-20T07:37:20.344Z,49.80
2019-06-20T07:39:46.789Z,49.90
2019-06-20T07:42:13.483Z,49.90
2019-06-20T07:44:40.312Z,49.90
2019-06-20T07:47:17.210Z,49.80
2019-06-20T07:49:35.408Z,49.70
2019-06-20T07:52:01.835Z,49.70
2019-06-20T07:54:28.551Z,49.50
2019-06-20T07:56:55.120Z,49.60
2019-06-20T07:59:22.363Z,50.30
2019-06-20T08:01:48.952Z,49.90
2019-06-20T08:04:15.802Z,49.50
2019-06-20T08:06:42.076Z,49.20
2019-06-20T08:09:09.350Z,48.80
2019-06-20T08:11:35.835Z,48.70
2019-06-20T08:14:02.958Z,48.60
2019-06-20T08:16:29.843Z,48.50
2019-06-20T08:18:56.281Z,48.50
2019-06-20T08:21:22.687Z,48.60
2019-06-20T08:23:49.391Z,48.70
2019-06-20T08:26:16.235Z,48.60
2019-06-20T08:28:42.735Z,48.90
2019-06-20T08:31:09.148Z,48.80
2019-06-20T08:33:36.167Z,48.80
2019-06-20T08:36:04.500Z,48.90
2019-06-20T08:38:31.234Z,48.30
2019-06-20T08:40:58.476Z,48.00
2019-06-20T08:43:25.010Z,47.70
2019-06-20T08:45:51.323Z,47.60
2019-06-20T08:48:18.174Z,47.50
2019-06-20T08:50:44.825Z,47.30
2019-06-20T08:53:11.653Z,47.10
2019-06-20T08:55:38.659Z,47.00
2019-06-20T08:58:05.603Z,47.00
2019-06-20T09:00:34.587Z,47.20
2019-06-20T09:03:04.068Z,47.30
2019-06-20T09:05:30.822Z,47.20
2019-06-20T09:07:59.044Z,47.10
2019-06-20T09:10:40.532Z,47.10
2019-06-20T09:13:08.987Z,46.90
2019-06-20T09:15:36.372Z,46.70
2019-06-20T09:18:03.391Z,46.70
2019-06-20T09:20:30.683Z,46.80
2019-06-20T09:22:58.925Z,46.70
2019-06-20T09:25:25.602Z,46.80
2019-06-20T09:27:53.284Z,46.90
2019-06-20T09:30:43.345Z,47.20
2019-06-20T09:33:10.183Z,47.50
2019-06-20T09:35:37.008Z,47.90
2019-06-20T09:38:03.794Z,47.30
2019-06-20T09:40:30.706Z,46.50
2019-06-20T09:42:58.378Z,46.80
2019-06-20T09:45:25.623Z,47.50
2019-06-20T09:47:52.393Z,48.00
2019-06-20T09:50:21.363Z,47.70
2019-06-20T09:52:49.800Z,47.50
2019-06-20T09:55:16.319Z,47.40
2019-06-20T09:57:42.767Z,46.00
2019-06-20T10:00:15.786Z,46.50
2019-06-20T10:02:42.729Z,45.40
2019-06-20T10:05:10.003Z,44.00
2019-06-20T10:07:36.556Z,42.10
2019-06-20T10:10:06.200Z,40.80
2019-06-20T10:12:32.482Z,39.50
2019-06-20T10:14:58.843Z,38.80
2019-06-20T10:17:25.138Z,38.00
2019-06-20T10:19:52.054Z,38.00
2019-06-20T10:22:18.839Z,38.40
2019-06-20T10:24:46.345Z,38.60
2019-06-20T10:27:13.664Z,39.20
2019-06-20T10:29:40.260Z,39.50
2019-06-20T10:32:06.719Z,40.40
2019-06-20T10:34:33.190Z,40.60
2019-06-20T10:37:00.129Z,40.10
2019-06-20T10:39:26.922Z,39.90
2019-06-20T10:41:53.283Z,39.60
2019-06-20T10:44:20.763Z,39.30
2019-06-20T10:47:00.553Z,39.10
2019-06-20T10:49:27.043Z,38.90
2019-06-20T10:51:53.643Z,38.90
2019-06-20T10:54:20.191Z,39.00
2019-06-20T10:56:47.157Z,39.10
2019-06-20T10:59:13.879Z,38.90
2019-06-20T11:01:41.590Z,40.00
2019-06-20T11:04:09.189Z,39.70
2019-06-20T11:06:36.125Z,39.80
2019-06-20T11:09:06.411Z,39.80
2019-06-20T11:11:32.879Z,39.80
2019-06-20T11:13:59.708Z,39.80
2019-06-20T11:16:26.796Z,39.80
2019-06-20T11:18:53.499Z,39.70
2019-06-20T11:21:19.891Z,39.80
2019-06-20T11:23:47.421Z,39.90
2019-06-20T11:26:13.978Z,39.90
2019-06-20T11:28:41.426Z,39.90
2019-06-20T11:31:08.459Z,39.90
2019-06-20T11:33:36.585Z,39.90
2019-06-20T11:36:03.860Z,40.20
2019-06-20T11:38:30.615Z,40.50
2019-06-20T11:40:57.567Z,40.60
2019-06-20T11:43:24.402Z,40.60
2019-06-20T11:45:51.474Z,40.40
2019-06-20T11:48:17.859Z,40.30
2019-06-20T11:50:44.258Z,40.20
2019-06-20T11:53:10.794Z,40.10
2019-06-20T11:55:37.136Z,40.40
2019-06-20T11:58:03.771Z,41.00
2019-06-20T12:00:30.491Z,41.40
2019-06-20T12:02:56.787Z,40.30
2019-06-20T12:05:23.266Z,40.00
2019-06-20T12:07:50.147Z,39.50
2019-06-20T12:10:17.546Z,39.50
2019-06-20T12:12:44.755Z,39.40
2019-06-20T12:15:11.988Z,39.20
2019-06-20T12:17:40.882Z,39.10
2019-06-20T12:20:08.508Z,38.90
2019-06-20T12:22:34.891Z,38.80
2019-06-20T12:25:01.759Z,38.70
2019-06-20T12:27:28.243Z,38.40
2019-06-20T12:29:54.658Z,38.50
2019-06-20T12:32:21.105Z,38.60
2019-06-20T12:34:49.040Z,38.50
2019-06-20T12:37:15.550Z,38.80
2019-06-20T12:39:42.298Z,39.40
2019-06-20T12:42:08.671Z,39.80
2019-06-20T12:44:38.450Z,40.20
2019-06-20T12:47:05.310Z,39.70
2019-06-20T12:49:31.714Z,39.60
2019-06-20T12:51:58.075Z,40.00
2019-06-20T12:54:24.720Z,39.70
2019-06-20T12:56:51.476Z,38.60
2019-06-20T12:59:18.009Z,38.30
2019-06-20T13:01:47.778Z,38.10
2019-06-20T13:04:12.903Z,36.20
2019-06-20T13:06:40.477Z,36.10
2019-06-20T13:09:07.187Z,35.50
2019-06-20T13:11:33.663Z,34.70
2019-06-20T13:14:00.307Z,34.80
2019-06-20T13:16:27.004Z,34.60
2019-06-20T13:18:53.376Z,34.50
2019-06-20T13:21:20.108Z,34.30
2019-06-20T13:23:47.248Z,34.80
2019-06-20T13:26:14.028Z,34.60
2019-06-20T13:28:58.882Z,34.70
2019-06-20T13:31:08.495Z,34.70
2019-06-20T13:33:39.091Z,34.40
2019-06-20T13:36:05.388Z,34.40
2019-06-20T13:38:31.842Z,34.30
2019-06-20T13:40:58.137Z,34.40
2019-06-20T13:43:24.628Z,34.60
2019-06-20T13:45:52.164Z,34.90
2019-06-20T13:48:19.040Z,35.10
2019-06-20T13:50:45.890Z,35.30
2019-06-20T13:53:12.542Z,35.50
2019-06-20T13:55:39.468Z,35.70
2019-06-20T13:58:07.426Z,35.90
2019-06-20T14:00:34.361Z,36.00
2019-06-20T14:03:01.230Z,36.10
2019-06-20T14:05:27.740Z,36.30
2019-06-20T14:07:55.999Z,36.40
2019-06-20T14:10:22.615Z,36.70
2019-06-20T14:12:49.227Z,36.90
2019-06-20T14:15:16.019Z,37.30
2019-06-20T14:17:43.201Z,37.60
2019-06-20T14:20:10.670Z,38.10
2019-06-20T14:22:37.323Z,38.50
2019-06-20T14:25:05.427Z,38.80
2019-06-20T14:27:35.014Z,40.30
2019-06-20T14:30:00.396Z,39.70
2019-06-20T14:32:26.886Z,40.40
2019-06-20T14:34:54.336Z,40.70
2019-06-20T14:37:20.794Z,40.90
2019-06-20T14:39:47.201Z,41.60
2019-06-20T14:42:13.486Z,41.90
2019-06-20T14:44:39.909Z,42.20
2019-06-20T14:47:06.442Z,42.90
2019-06-20T14:49:32.886Z,43.00
2019-06-20T14:51:59.150Z,43.50
2019-06-20T14:54:25.576Z,43.50
2019-06-20T14:56:52.050Z,43.70
2019-06-20T14:59:18.471Z,43.30
2019-06-20T15:01:46.303Z,43.60
2019-06-20T15:04:12.851Z,43.10
2019-06-20T15:06:39.227Z,43.00
2019-06-20T15:09:06.690Z,43.10
2019-06-20T15:11:35.287Z,43.20
2019-06-20T15:14:01.991Z,43.10
2019-06-20T15:16:30.069Z,42.80
2019-06-20T15:18:57.285Z,42.80
2019-06-20T15:21:23.862Z,42.70
2019-06-20T15:23:51.278Z,42.60
2019-06-20T15:26:18.686Z,42.30
2019-06-20T15:28:46.241Z,42.20
2019-06-20T15:31:13.163Z,42.50
2019-06-20T15:33:39.639Z,42.50
2019-06-20T15:36:06.026Z,42.60
2019-06-20T15:38:32.304Z,42.40
2019-06-20T15:40:58.791Z,42.40
2019-06-20T15:43:25.489Z,42.30
2019-06-20T15:45:52.161Z,42.10
2019-06-20T15:48:18.952Z,42.10
2019-06-20T15:50:45.364Z,42.30
2019-06-20T15:53:11.810Z,42.70
2019-06-20T15:55:38.087Z,42.50
2019-06-20T15:58:04.416Z,42.50
2019-06-20T16:00:31.239Z,42.50
2019-06-20T16:03:09.358Z,42.60
2019-06-20T16:05:25.983Z,42.90
2019-06-20T16:07:52.381Z,43.00
2019-06-20T16:10:18.955Z,43.20
2019-06-20T16:12:45.545Z,43.40
2019-06-20T16:15:18.631Z,43.80
2019-06-20T16:17:45.023Z,43.60
2019-06-20T16:20:11.707Z,43.90
2019-06-20T16:22:38.545Z,44.30
2019-06-20T16:25:05.927Z,44.50
2019-06-20T16:27:32.670Z,44.60
2019-06-20T16:29:59.053Z,44.70
2019-06-20T16:32:25.351Z,44.30
2019-06-20T16:34:52.162Z,44.70
2019-06-20T16:37:18.543Z,44.70
2019-06-20T16:39:44.926Z,44.90
2019-06-20T16:42:11.283Z,45.00
2019-06-20T16:44:37.676Z,45.10
2019-06-20T16:47:04.255Z,45.20
2019-06-20T16:49:31.652Z,45.20
2019-06-20T16:51:58.043Z,45.30
2019-06-20T16:54:24.364Z,45.40
2019-06-20T16:56:50.819Z,45.40
2019-06-20T16:59:17.113Z,45.70
2019-06-20T17:01:43.399Z,46.10
2019-06-20T17:04:09.983Z,45.40
2019-06-20T17:06:36.246Z,45.60
2019-06-20T17:09:05.667Z,45.80
2019-06-20T17:11:32.522Z,46.00
2019-06-20T17:13:58.820Z,45.80
2019-06-20T17:16:25.291Z,45.80
2019-06-20T17:18:51.711Z,46.00
2019-06-20T17:21:18.316Z,46.20
2019-06-20T17:23:44.684Z,46.50
2019-06-20T17:26:11.079Z,46.60
2019-06-20T17:28:37.358Z,46.70
2019-06-20T17:31:04.123Z,46.80
2019-06-20T17:33:30.538Z,46.90
2019-06-20T17:35:57.001Z,47.00
2019-06-20T17:38:23.442Z,47.20
2019-06-20T17:40:49.845Z,47.40
2019-06-20T17:43:16.214Z,47.40
2019-06-20T17:45:42.936Z,47.30
2019-06-20T17:48:09.303Z,47.60
2019-06-20T17:50:36.030Z,47.60
2019-06-20T17:53:02.701Z,47.80
2019-06-20T17:55:30.291Z,47.70
2019-06-20T17:57:57.973Z,48.00
2019-06-20T18:00:24.996Z,48.10
2019-06-20T18:02:51.676Z,48.40
2019-06-20T18:05:18.703Z,48.70
2019-06-20T18:07:45.455Z,48.70
2019-06-20T18:10:14.123Z,48.80
2019-06-20T18:12:40.863Z,48.60
2019-06-20T18:15:07.547Z,48.60
2019-06-20T18:17:33.956Z,48.80
2019-06-20T18:20:00.492Z,48.90
2019-06-20T18:22:27.054Z,48.80
2019-06-20T18:24:53.427Z,48.90
2019-06-20T18:27:19.845Z,49.10
2019-06-20T18:29:46.224Z,49.10
2019-06-20T18:32:12.748Z,49.30
2019-06-20T18:34:40.275Z,49.20
2019-06-20T18:37:06.688Z,49.20
2019-06-20T18:39:33.070Z,49.30
2019-06-20T18:41:59.545Z,49.40
2019-06-20T18:44:26.257Z,49.60
2019-06-20T18:46:52.707Z,49.60
2019-06-20T18:49:19.086Z,49.70
2019-06-20T18:51:45.876Z,49.80
2019-06-20T18:54:25.183Z,49.90
2019-06-20T18:56:51.557Z,50.30
2019-06-20T18:59:18.193Z,50.20
2019-06-20T19:01:44.802Z,50.50
2019-06-20T19:04:11.674Z,50.50
2019-06-20T19:06:38.049Z,50.70
2019-06-20T19:09:07.264Z,50.60
2019-06-20T19:11:33.956Z,50.90
2019-06-20T19:14:00.403Z,50.70
2019-06-20T19:16:27.238Z,50.90
2019-06-20T19:18:53.764Z,51.20
2019-06-20T19:21:20.171Z,51.40
2019-06-20T19:23:46.543Z,51.50
2019-06-20T19:26:13.237Z,51.70
2019-06-20T19:28:39.635Z,51.70
2019-06-20T19:31:06.221Z,51.90
2019-06-20T19:33:32.647Z,51.80
2019-06-20T19:35:59.491Z,51.90
2019-06-20T19:38:25.982Z,51.90
2019-06-20T19:40:52.640Z,51.90
2019-06-20T19:43:19.502Z,51.90
2019-06-20T19:45:47.123Z,51.90
2019-06-20T19:48:13.606Z,52.00
2019-06-20T19:50:40.591Z,52.00
2019-06-20T19:53:07.303Z,52.00
2019-06-20T19:55:34.085Z,52.60
2019-06-20T19:58:00.647Z,52.10
2019-06-20T20:00:27.018Z,52.30
2019-06-20T20:02:53.829Z,52.30
2019-06-20T20:05:20.627Z,52.40
2019-06-20T20:07:47.119Z,52.40
2019-06-20T20:10:15.915Z,52.40
2019-06-20T20:12:42.306Z,52.40
2019-06-20T20:15:08.989Z,52.30
2019-06-20T20:17:35.774Z,52.40
2019-06-20T20:20:05.019Z,52.50
2019-06-20T20:22:31.781Z,52.60
2019-06-20T20:24:58.162Z,52.60
2019-06-20T20:27:24.552Z,52.60
2019-06-20T20:29:51.068Z,52.70
2019-06-20T20:32:17.464Z,52.70
2019-06-20T20:34:44.135Z,52.80
2019-06-20T20:37:10.552Z,52.80
2019-06-20T20:39:37.234Z,52.90
2019-06-20T20:42:04.495Z,53.00
2019-06-20T20:44:30.775Z,53.00
2019-06-20T20:46:57.068Z,53.20
2019-06-20T20:49:23.429Z,53.30
2019-06-20T20:51:49.790Z,53.30
2019-06-20T20:54:16.238Z,53.20
2019-06-20T20:56:42.886Z,53.10
2019-06-20T20:59:09.175Z,53.20
2019-06-20T21:01:35.883Z,53.20
2019-06-20T21:04:02.858Z,53.60
2019-06-20T21:06:29.535Z,53.30
2019-06-20T21:08:56.466Z,53.30
2019-06-20T21:11:22.952Z,53.40
2019-06-20T21:13:49.366Z,53.40
2019-06-20T21:16:15.896Z,53.50
2019-06-20T21:18:42.359Z,53.50
2019-06-20T21:21:08.943Z,53.60
2019-06-20T21:23:35.591Z,53.70
2019-06-20T21:26:02.009Z,53.80
2019-06-20T21:28:28.426Z,53.90
2019-06-20T21:30:54.740Z,54.00
2019-06-20T21:33:21.470Z,54.10
2019-06-20T21:35:48.474Z,54.40
2019-06-20T21:38:14.859Z,54.50
2019-06-20T21:40:41.557Z,54.70
2019-06-20T21:43:07.822Z,55.20
2019-06-20T21:45:34.239Z,55.00
2019-06-20T21:48:01.143Z,55.20
2019-06-20T21:50:27.509Z,55.60
2019-06-20T21:52:53.795Z,55.30
2019-06-20T21:55:20.454Z,55.50
2019-06-20T21:57:46.839Z,55.70
2019-06-20T22:00:38.168Z,55.90
2019-06-20T22:03:07.814Z,56.00
2019-06-20T22:05:34.310Z,55.90
2019-06-20T22:08:00.862Z,56.00
2019-06-20T22:10:27.403Z,56.00
2019-06-20T22:12:53.805Z,56.00
2019-06-20T22:15:20.485Z,55.90
2019-06-20T22:17:46.959Z,55.90
2019-06-20T22:20:14.156Z,55.80
2019-06-20T22:22:40.548Z,55.80
2019-06-20T22:25:07.830Z,55.70
2019-06-20T22:27:34.732Z,55.70
2019-06-20T22:30:03.842Z,55.70
2019-06-20T22:32:29.425Z,55.80
2019-06-20T22:34:55.974Z,55.80
2019-06-20T22:37:22.658Z,55.80
2019-06-20T22:39:49.036Z,55.90
2019-06-20T22:42:15.519Z,55.70
2019-06-20T22:44:41.787Z,55.80
2019-06-20T22:47:08.330Z,55.90
2019-06-20T22:49:34.614Z,56.10
2019-06-20T22:52:01.776Z,56.20
2019-06-20T22:54:28.086Z,56.50
2019-06-20T22:56:54.695Z,56.40
2019-06-20T22:59:21.018Z,56.50
2019-06-20T23:01:47.537Z,56.60
2019-06-20T23:04:14.114Z,56.60
2019-06-20T23:06:55.253Z,56.70
2019-06-20T23:09:09.294Z,56.80
2019-06-20T23:11:36.050Z,56.80
2019-06-20T23:14:02.506Z,56.90
2019-06-20T23:16:28.795Z,56.90
2019-06-20T23:18:55.075Z,56.80
2019-06-20T23:21:21.673Z,56.70
2019-06-20T23:24:01.532Z,56.70
2019-06-20T23:26:27.927Z,56.50
2019-06-20T23:29:13.131Z,56.60
2019-06-20T23:31:39.531Z,56.60
2019-06-20T23:34:06.195Z,56.60
2019-06-20T23:36:32.593Z,56.60
2019-06-20T23:38:59.006Z,57.10
2019-06-20T23:41:25.361Z,56.70
2019-06-20T23:43:51.672Z,56.60
2019-06-20T23:46:18.039Z,56.70
2019-06-20T23:48:44.432Z,56.80
2019-06-20T23:51:24.684Z,56.90
2019-06-20T23:53:39.204Z,56.80
2019-06-20T23:56:07.942Z,56.90
2019-06-20T23:58:34.951Z,56.90
